sensor_id;sensor_type;location;lat;lon;timestamp;P1;durP1;ratioP1;P2;durP2;ratioP2
4290;SDS011;2159;50.906;7.152;2023-09-08T00:00:43;5.13;;;4.63;;
4290;SDS011;2159;50.906;7.152;2023-09-08T00:03:10;11.33;;;4.90;;
4290;SDS011;2159;50.906;7.152;2023-09-08T00:05:38;9.23;;;4.87;;
4290;SDS011;2159;50.906;7.152;2023-09-08T00:08:05;9.73;;;5.00;;
4290;SDS011;2159;50.906;7.152;2023-09-08T00:10:33;8.97;;;4.80;;
4290;SDS011;2159;50.906;7.152;2023-09-08T00:13:02;5.33;;;4.83;;
4290;SDS011;2159;50.906;7.152;2023-09-08T00:15:29;5.20;;;4.70;;
4290;SDS011;2159;50.906;7.152;2023-09-08T00:17:57;6.77;;;5.00;;
4290;SDS011;2159;50.906;7.152;2023-09-08T00:20:25;6.00;;;5.20;;
4290;SDS011;2159;50.906;7.152;2023-09-08T00:22:53;7.63;;;4.97;;
4290;SDS011;2159;50.906;7.152;2023-09-08T00:25:20;5.77;;;4.53;;
4290;SDS011;2159;50.906;7.152;2023-09-08T00:27:50;7.80;;;4.87;;
4290;SDS011;2159;50.906;7.152;2023-09-08T00:30:19;5.37;;;4.80;;
4290;SDS011;2159;50.906;7.152;2023-09-08T00:32:46;8.13;;;5.13;;
4290;SDS011;2159;50.906;7.152;2023-09-08T00:35:14;7.17;;;4.60;;
4290;SDS011;2159;50.906;7.152;2023-09-08T00:37:41;8.23;;;5.17;;
4290;SDS011;2159;50.906;7.152;2023-09-08T00:40:09;5.43;;;4.50;;
4290;SDS011;2159;50.906;7.152;2023-09-08T00:42:37;5.13;;;4.63;;
4290;SDS011;2159;50.906;7.152;2023-09-08T00:45:05;9.83;;;5.37;;
4290;SDS011;2159;50.906;7.152;2023-09-08T00:47:34;6.17;;;5.03;;
4290;SDS011;2159;50.906;7.152;2023-09-08T00:50:02;6.97;;;5.20;;
4290;SDS011;2159;50.906;7.152;2023-09-08T00:52:30;7.13;;;5.07;;
4290;SDS011;2159;50.906;7.152;2023-09-08T00:55:00;8.07;;;5.13;;
4290;SDS011;2159;50.906;7.152;2023-09-08T00:57:27;5.50;;;5.00;;
4290;SDS011;2159;50.906;7.152;2023-09-08T00:59:56;6.67;;;5.00;;
4290;SDS011;2159;50.906;7.152;2023-09-08T01:02:23;8.57;;;4.80;;
4290;SDS011;2159;50.906;7.152;2023-09-08T01:04:52;5.63;;;5.13;;
4290;SDS011;2159;50.906;7.152;2023-09-08T01:07:20;7.90;;;5.37;;
4290;SDS011;2159;50.906;7.152;2023-09-08T01:09:51;5.87;;;5.13;;
4290;SDS011;2159;50.906;7.152;2023-09-08T01:12:18;6.13;;;5.13;;
4290;SDS011;2159;50.906;7.152;2023-09-08T01:14:46;8.00;;;5.33;;
4290;SDS011;2159;50.906;7.152;2023-09-08T01:17:14;8.53;;;4.80;;
4290;SDS011;2159;50.906;7.152;2023-09-08T01:19:41;5.87;;;5.10;;
4290;SDS011;2159;50.906;7.152;2023-09-08T01:22:21;8.03;;;4.80;;
4290;SDS011;2159;50.906;7.152;2023-09-08T01:27:44;7.50;;;5.20;;
4290;SDS011;2159;50.906;7.152;2023-09-08T01:30:12;6.67;;;5.10;;
4290;SDS011;2159;50.906;7.152;2023-09-08T01:32:41;5.27;;;4.63;;
4290;SDS011;2159;50.906;7.152;2023-09-08T01:35:08;6.10;;;5.50;;
4290;SDS011;2159;50.906;7.152;2023-09-08T01:37:38;5.90;;;5.30;;
4290;SDS011;2159;50.906;7.152;2023-09-08T01:40:06;5.93;;;4.83;;
4290;SDS011;2159;50.906;7.152;2023-09-08T01:42:34;6.20;;;5.27;;
4290;SDS011;2159;50.906;7.152;2023-09-08T01:45:03;6.60;;;5.17;;
4290;SDS011;2159;50.906;7.152;2023-09-08T01:47:31;9.30;;;4.80;;
4290;SDS011;2159;50.906;7.152;2023-09-08T01:49:58;6.03;;;5.43;;
4290;SDS011;2159;50.906;7.152;2023-09-08T01:52:26;12.00;;;5.40;;
4290;SDS011;2159;50.906;7.152;2023-09-08T01:54:53;6.20;;;5.60;;
4290;SDS011;2159;50.906;7.152;2023-09-08T01:57:21;8.40;;;4.97;;
4290;SDS011;2159;50.906;7.152;2023-09-08T01:59:49;10.97;;;4.97;;
4290;SDS011;2159;50.906;7.152;2023-09-08T02:02:17;5.40;;;4.83;;
4290;SDS011;2159;50.906;7.152;2023-09-08T02:04:45;8.10;;;5.60;;
4290;SDS011;2159;50.906;7.152;2023-09-08T02:07:12;5.73;;;5.20;;
4290;SDS011;2159;50.906;7.152;2023-09-08T02:09:40;5.70;;;5.07;;
4290;SDS011;2159;50.906;7.152;2023-09-08T02:12:08;6.13;;;5.07;;
4290;SDS011;2159;50.906;7.152;2023-09-08T02:14:35;5.80;;;5.20;;
4290;SDS011;2159;50.906;7.152;2023-09-08T02:17:04;7.87;;;5.40;;
4290;SDS011;2159;50.906;7.152;2023-09-08T02:19:33;5.57;;;5.00;;
4290;SDS011;2159;50.906;7.152;2023-09-08T02:22:01;5.83;;;4.93;;
4290;SDS011;2159;50.906;7.152;2023-09-08T02:24:28;5.60;;;5.10;;
4290;SDS011;2159;50.906;7.152;2023-09-08T02:26:56;6.23;;;5.27;;
4290;SDS011;2159;50.906;7.152;2023-09-08T02:29:23;7.77;;;5.50;;
4290;SDS011;2159;50.906;7.152;2023-09-08T02:31:51;5.73;;;5.23;;
4290;SDS011;2159;50.906;7.152;2023-09-08T02:34:18;6.87;;;5.27;;
4290;SDS011;2159;50.906;7.152;2023-09-08T02:36:47;6.13;;;5.53;;
4290;SDS011;2159;50.906;7.152;2023-09-08T02:39:17;8.33;;;5.23;;
4290;SDS011;2159;50.906;7.152;2023-09-08T02:41:44;5.70;;;5.20;;
4290;SDS011;2159;50.906;7.152;2023-09-08T02:44:12;6.10;;;5.40;;
4290;SDS011;2159;50.906;7.152;2023-09-08T02:46:39;5.80;;;5.00;;
4290;SDS011;2159;50.906;7.152;2023-09-08T02:49:07;7.60;;;5.67;;
4290;SDS011;2159;50.906;7.152;2023-09-08T02:51:35;6.97;;;5.20;;
4290;SDS011;2159;50.906;7.152;2023-09-08T02:54:03;6.03;;;5.00;;
4290;SDS011;2159;50.906;7.152;2023-09-08T02:56:31;5.60;;;5.10;;
4290;SDS011;2159;50.906;7.152;2023-09-08T02:58:58;8.53;;;5.47;;
4290;SDS011;2159;50.906;7.152;2023-09-08T03:01:26;8.40;;;5.70;;
4290;SDS011;2159;50.906;7.152;2023-09-08T03:03:53;8.37;;;5.20;;
4290;SDS011;2159;50.906;7.152;2023-09-08T03:06:21;6.10;;;5.40;;
4290;SDS011;2159;50.906;7.152;2023-09-08T03:08:49;6.00;;;4.97;;
4290;SDS011;2159;50.906;7.152;2023-09-08T03:11:18;6.93;;;5.13;;
4290;SDS011;2159;50.906;7.152;2023-09-08T03:13:45;5.93;;;5.33;;
4290;SDS011;2159;50.906;7.152;2023-09-08T03:16:13;12.13;;;5.37;;
4290;SDS011;2159;50.906;7.152;2023-09-08T03:18:41;5.40;;;5.00;;
4290;SDS011;2159;50.906;7.152;2023-09-08T03:21:08;5.80;;;4.90;;
4290;SDS011;2159;50.906;7.152;2023-09-08T03:23:37;7.20;;;5.40;;
4290;SDS011;2159;50.906;7.152;2023-09-08T03:26:05;5.73;;;5.13;;
4290;SDS011;2159;50.906;7.152;2023-09-08T03:28:34;6.20;;;5.37;;
4290;SDS011;2159;50.906;7.152;2023-09-08T03:31:02;5.73;;;5.10;;
4290;SDS011;2159;50.906;7.152;2023-09-08T03:33:30;8.37;;;5.20;;
4290;SDS011;2159;50.906;7.152;2023-09-08T03:35:58;6.40;;;5.20;;
4290;SDS011;2159;50.906;7.152;2023-09-08T03:38:26;7.43;;;5.37;;
4290;SDS011;2159;50.906;7.152;2023-09-08T03:40:53;5.77;;;5.20;;
4290;SDS011;2159;50.906;7.152;2023-09-08T03:43:21;5.60;;;4.73;;
4290;SDS011;2159;50.906;7.152;2023-09-08T03:45:50;7.13;;;5.40;;
4290;SDS011;2159;50.906;7.152;2023-09-08T03:48:17;6.97;;;5.00;;
4290;SDS011;2159;50.906;7.152;2023-09-08T03:50:45;6.73;;;5.20;;
4290;SDS011;2159;50.906;7.152;2023-09-08T03:53:12;7.70;;;5.27;;
4290;SDS011;2159;50.906;7.152;2023-09-08T03:55:40;5.77;;;5.27;;
4290;SDS011;2159;50.906;7.152;2023-09-08T03:58:07;5.73;;;5.20;;
4290;SDS011;2159;50.906;7.152;2023-09-08T04:00:35;9.03;;;5.37;;
4290;SDS011;2159;50.906;7.152;2023-09-08T04:03:04;6.20;;;5.27;;
4290;SDS011;2159;50.906;7.152;2023-09-08T04:05:32;6.47;;;4.90;;
4290;SDS011;2159;50.906;7.152;2023-09-08T04:07:59;6.00;;;5.20;;
4290;SDS011;2159;50.906;7.152;2023-09-08T04:10:27;8.33;;;5.30;;
4290;SDS011;2159;50.906;7.152;2023-09-08T04:12:54;8.50;;;5.73;;
4290;SDS011;2159;50.906;7.152;2023-09-08T04:15:22;5.60;;;5.10;;
4290;SDS011;2159;50.906;7.152;2023-09-08T04:17:50;5.77;;;5.20;;
4290;SDS011;2159;50.906;7.152;2023-09-08T04:20:19;7.87;;;5.33;;
4290;SDS011;2159;50.906;7.152;2023-09-08T04:22:46;5.43;;;4.93;;
4290;SDS011;2159;50.906;7.152;2023-09-08T04:25:14;5.97;;;5.30;;
4290;SDS011;2159;50.906;7.152;2023-09-08T04:27:42;5.37;;;4.83;;
4290;SDS011;2159;50.906;7.152;2023-09-08T04:30:11;7.60;;;5.10;;
4290;SDS011;2159;50.906;7.152;2023-09-08T04:32:39;7.30;;;5.30;;
4290;SDS011;2159;50.906;7.152;2023-09-08T04:35:07;5.80;;;5.00;;
4290;SDS011;2159;50.906;7.152;2023-09-08T04:37:36;5.50;;;4.87;;
4290;SDS011;2159;50.906;7.152;2023-09-08T04:40:05;6.37;;;5.00;;
4290;SDS011;2159;50.906;7.152;2023-09-08T04:42:34;8.13;;;5.50;;
4290;SDS011;2159;50.906;7.152;2023-09-08T04:45:01;6.00;;;5.10;;
4290;SDS011;2159;50.906;7.152;2023-09-08T04:47:29;5.60;;;5.10;;
4290;SDS011;2159;50.906;7.152;2023-09-08T04:49:56;6.07;;;4.80;;
4290;SDS011;2159;50.906;7.152;2023-09-08T04:52:24;12.73;;;5.50;;
4290;SDS011;2159;50.906;7.152;2023-09-08T04:54:53;6.27;;;5.27;;
4290;SDS011;2159;50.906;7.152;2023-09-08T04:57:20;7.73;;;5.80;;
4290;SDS011;2159;50.906;7.152;2023-09-08T04:59:49;6.23;;;5.37;;
4290;SDS011;2159;50.906;7.152;2023-09-08T05:02:17;5.60;;;5.10;;
4290;SDS011;2159;50.906;7.152;2023-09-08T05:04:45;6.60;;;5.73;;
4290;SDS011;2159;50.906;7.152;2023-09-08T05:07:13;6.77;;;5.03;;
4290;SDS011;2159;50.906;7.152;2023-09-08T05:09:40;10.00;;;4.97;;
4290;SDS011;2159;50.906;7.152;2023-09-08T05:12:09;5.93;;;5.33;;
4290;SDS011;2159;50.906;7.152;2023-09-08T05:14:36;7.30;;;5.10;;
4290;SDS011;2159;50.906;7.152;2023-09-08T05:17:04;6.30;;;4.73;;
4290;SDS011;2159;50.906;7.152;2023-09-08T05:19:31;8.43;;;5.07;;
4290;SDS011;2159;50.906;7.152;2023-09-08T05:21:59;5.43;;;4.93;;
4290;SDS011;2159;50.906;7.152;2023-09-08T05:24:26;9.13;;;5.17;;
4290;SDS011;2159;50.906;7.152;2023-09-08T05:26:54;7.80;;;5.00;;
4290;SDS011;2159;50.906;7.152;2023-09-08T05:29:23;6.80;;;5.13;;
4290;SDS011;2159;50.906;7.152;2023-09-08T05:31:50;5.83;;;5.23;;
4290;SDS011;2159;50.906;7.152;2023-09-08T05:34:18;6.00;;;5.40;;
4290;SDS011;2159;50.906;7.152;2023-09-08T05:36:45;5.97;;;5.37;;
4290;SDS011;2159;50.906;7.152;2023-09-08T05:39:13;5.57;;;4.93;;
4290;SDS011;2159;50.906;7.152;2023-09-08T05:41:41;6.23;;;5.53;;
4290;SDS011;2159;50.906;7.152;2023-09-08T05:44:09;5.30;;;4.80;;
4290;SDS011;2159;50.906;7.152;2023-09-08T05:46:37;6.27;;;5.33;;
4290;SDS011;2159;50.906;7.152;2023-09-08T05:49:05;11.00;;;5.50;;
4290;SDS011;2159;50.906;7.152;2023-09-08T05:51:33;9.00;;;5.47;;
4290;SDS011;2159;50.906;7.152;2023-09-08T05:54:00;8.10;;;5.63;;
4290;SDS011;2159;50.906;7.152;2023-09-08T05:56:29;6.40;;;5.40;;
4290;SDS011;2159;50.906;7.152;2023-09-08T05:58:57;6.70;;;5.03;;
4290;SDS011;2159;50.906;7.152;2023-09-08T06:01:24;8.47;;;5.60;;
4290;SDS011;2159;50.906;7.152;2023-09-08T06:03:53;6.60;;;5.43;;
4290;SDS011;2159;50.906;7.152;2023-09-08T06:06:21;13.30;;;5.50;;
4290;SDS011;2159;50.906;7.152;2023-09-08T06:08:49;6.03;;;5.43;;
4290;SDS011;2159;50.906;7.152;2023-09-08T06:11:16;9.73;;;5.57;;
4290;SDS011;2159;50.906;7.152;2023-09-08T06:13:44;6.70;;;5.20;;
4290;SDS011;2159;50.906;7.152;2023-09-08T06:16:11;5.77;;;5.27;;
4290;SDS011;2159;50.906;7.152;2023-09-08T06:18:39;7.20;;;5.47;;
4290;SDS011;2159;50.906;7.152;2023-09-08T06:21:08;6.13;;;5.07;;
4290;SDS011;2159;50.906;7.152;2023-09-08T06:23:36;8.63;;;5.07;;
4290;SDS011;2159;50.906;7.152;2023-09-08T06:26:03;9.73;;;5.40;;
4290;SDS011;2159;50.906;7.152;2023-09-08T06:28:31;9.60;;;5.17;;
4290;SDS011;2159;50.906;7.152;2023-09-08T06:30:59;6.30;;;5.57;;
4290;SDS011;2159;50.906;7.152;2023-09-08T06:33:26;6.77;;;4.90;;
4290;SDS011;2159;50.906;7.152;2023-09-08T06:35:54;5.37;;;4.80;;
4290;SDS011;2159;50.906;7.152;2023-09-08T06:38:23;9.73;;;5.50;;
4290;SDS011;2159;50.906;7.152;2023-09-08T06:40:50;5.03;;;4.60;;
4290;SDS011;2159;50.906;7.152;2023-09-08T06:43:19;6.10;;;5.10;;
4290;SDS011;2159;50.906;7.152;2023-09-08T06:45:47;7.17;;;5.20;;
4290;SDS011;2159;50.906;7.152;2023-09-08T06:48:15;7.93;;;5.30;;
4290;SDS011;2159;50.906;7.152;2023-09-08T06:50:42;5.93;;;5.23;;
4290;SDS011;2159;50.906;7.152;2023-09-08T06:53:10;9.30;;;5.23;;
4290;SDS011;2159;50.906;7.152;2023-09-08T06:55:40;6.70;;;4.90;;
4290;SDS011;2159;50.906;7.152;2023-09-08T06:58:10;6.63;;;5.00;;
4290;SDS011;2159;50.906;7.152;2023-09-08T07:00:41;4.90;;;4.40;;
4290;SDS011;2159;50.906;7.152;2023-09-08T07:03:08;5.10;;;4.60;;
4290;SDS011;2159;50.906;7.152;2023-09-08T07:05:38;5.37;;;4.87;;
4290;SDS011;2159;50.906;7.152;2023-09-08T07:08:06;5.20;;;4.70;;
4290;SDS011;2159;50.906;7.152;2023-09-08T07:10:34;10.33;;;4.77;;
4290;SDS011;2159;50.906;7.152;2023-09-08T07:13:03;5.07;;;4.57;;
4290;SDS011;2159;50.906;7.152;2023-09-08T07:15:30;5.37;;;4.50;;
4290;SDS011;2159;50.906;7.152;2023-09-08T07:17:58;4.90;;;4.40;;
4290;SDS011;2159;50.906;7.152;2023-09-08T07:20:25;4.63;;;4.23;;
4290;SDS011;2159;50.906;7.152;2023-09-08T07:22:53;7.63;;;4.40;;
4290;SDS011;2159;50.906;7.152;2023-09-08T07:25:20;7.40;;;4.87;;
4290;SDS011;2159;50.906;7.152;2023-09-08T07:27:48;9.70;;;4.57;;
4290;SDS011;2159;50.906;7.152;2023-09-08T07:30:20;4.77;;;4.37;;
4290;SDS011;2159;50.906;7.152;2023-09-08T07:32:47;5.20;;;4.57;;
4290;SDS011;2159;50.906;7.152;2023-09-08T07:35:15;4.70;;;4.30;;
4290;SDS011;2159;50.906;7.152;2023-09-08T07:37:43;7.83;;;4.90;;
4290;SDS011;2159;50.906;7.152;2023-09-08T07:40:11;6.77;;;4.80;;
4290;SDS011;2159;50.906;7.152;2023-09-08T07:42:38;5.20;;;4.70;;
4290;SDS011;2159;50.906;7.152;2023-09-08T07:45:06;5.20;;;4.70;;
4290;SDS011;2159;50.906;7.152;2023-09-08T07:47:37;5.23;;;4.73;;
4290;SDS011;2159;50.906;7.152;2023-09-08T07:50:18;4.80;;;4.30;;
4290;SDS011;2159;50.906;7.152;2023-09-08T07:52:46;5.00;;;4.50;;
4290;SDS011;2159;50.906;7.152;2023-09-08T07:55:14;5.17;;;4.73;;
4290;SDS011;2159;50.906;7.152;2023-09-08T07:57:42;5.20;;;4.70;;
4290;SDS011;2159;50.906;7.152;2023-09-08T08:00:10;6.17;;;4.27;;
4290;SDS011;2159;50.906;7.152;2023-09-08T08:02:42;5.70;;;4.20;;
4290;SDS011;2159;50.906;7.152;2023-09-08T08:05:10;9.40;;;4.93;;
4290;SDS011;2159;50.906;7.152;2023-09-08T08:07:38;11.10;;;5.37;;
4290;SDS011;2159;50.906;7.152;2023-09-08T08:10:06;5.20;;;4.70;;
4290;SDS011;2159;50.906;7.152;2023-09-08T08:12:34;5.20;;;4.70;;
4290;SDS011;2159;50.906;7.152;2023-09-08T08:15:02;5.70;;;4.63;;
4290;SDS011;2159;50.906;7.152;2023-09-08T08:17:30;7.80;;;4.67;;
4290;SDS011;2159;50.906;7.152;2023-09-08T08:20:00;5.07;;;4.60;;
4290;SDS011;2159;50.906;7.152;2023-09-08T08:22:33;5.80;;;5.20;;
4290;SDS011;2159;50.906;7.152;2023-09-08T08:25:00;5.20;;;4.60;;
4290;SDS011;2159;50.906;7.152;2023-09-08T08:27:28;5.40;;;4.47;;
4290;SDS011;2159;50.906;7.152;2023-09-08T08:29:57;8.03;;;4.70;;
4290;SDS011;2159;50.906;7.152;2023-09-08T08:32:25;6.67;;;4.47;;
4290;SDS011;2159;50.906;7.152;2023-09-08T08:34:53;4.80;;;4.40;;
4290;SDS011;2159;50.906;7.152;2023-09-08T08:37:22;8.50;;;4.90;;
4290;SDS011;2159;50.906;7.152;2023-09-08T08:39:49;5.10;;;4.70;;
4290;SDS011;2159;50.906;7.152;2023-09-08T08:42:17;5.27;;;4.60;;
4290;SDS011;2159;50.906;7.152;2023-09-08T08:44:48;4.50;;;4.20;;
4290;SDS011;2159;50.906;7.152;2023-09-08T08:47:17;8.80;;;4.67;;
4290;SDS011;2159;50.906;7.152;2023-09-08T08:49:46;6.30;;;4.73;;
4290;SDS011;2159;50.906;7.152;2023-09-08T08:52:15;8.70;;;4.50;;
4290;SDS011;2159;50.906;7.152;2023-09-08T08:54:45;6.43;;;4.90;;
4290;SDS011;2159;50.906;7.152;2023-09-08T08:57:12;5.90;;;4.80;;
4290;SDS011;2159;50.906;7.152;2023-09-08T08:59:40;5.30;;;4.80;;
4290;SDS011;2159;50.906;7.152;2023-09-08T09:02:09;11.33;;;4.60;;
4290;SDS011;2159;50.906;7.152;2023-09-08T09:04:38;6.53;;;4.97;;
4290;SDS011;2159;50.906;7.152;2023-09-08T09:07:06;7.43;;;4.80;;
4290;SDS011;2159;50.906;7.152;2023-09-08T09:09:34;5.00;;;4.50;;
4290;SDS011;2159;50.906;7.152;2023-09-08T09:12:03;6.70;;;4.60;;
4290;SDS011;2159;50.906;7.152;2023-09-08T09:14:32;5.00;;;4.60;;
4290;SDS011;2159;50.906;7.152;2023-09-08T09:16:59;8.40;;;4.40;;
4290;SDS011;2159;50.906;7.152;2023-09-08T09:19:27;5.50;;;4.57;;
4290;SDS011;2159;50.906;7.152;2023-09-08T09:21:58;5.30;;;4.80;;
4290;SDS011;2159;50.906;7.152;2023-09-08T09:24:29;5.53;;;4.30;;
4290;SDS011;2159;50.906;7.152;2023-09-08T09:26:57;8.93;;;5.03;;
4290;SDS011;2159;50.906;7.152;2023-09-08T09:29:26;8.70;;;4.73;;
4290;SDS011;2159;50.906;7.152;2023-09-08T09:31:54;4.87;;;4.47;;
4290;SDS011;2159;50.906;7.152;2023-09-08T09:34:22;8.20;;;4.67;;
4290;SDS011;2159;50.906;7.152;2023-09-08T09:36:51;4.93;;;4.40;;
4290;SDS011;2159;50.906;7.152;2023-09-08T09:39:19;7.80;;;4.77;;
4290;SDS011;2159;50.906;7.152;2023-09-08T09:41:47;4.40;;;4.10;;
4290;SDS011;2159;50.906;7.152;2023-09-08T09:44:14;5.23;;;4.83;;
4290;SDS011;2159;50.906;7.152;2023-09-08T09:46:47;8.53;;;4.73;;
4290;SDS011;2159;50.906;7.152;2023-09-08T09:49:15;4.40;;;4.10;;
4290;SDS011;2159;50.906;7.152;2023-09-08T09:51:44;5.33;;;4.40;;
4290;SDS011;2159;50.906;7.152;2023-09-08T09:54:13;4.83;;;4.40;;
4290;SDS011;2159;50.906;7.152;2023-09-08T09:56:41;5.37;;;4.77;;
4290;SDS011;2159;50.906;7.152;2023-09-08T09:59:12;4.87;;;4.40;;
4290;SDS011;2159;50.906;7.152;2023-09-08T10:01:40;5.13;;;4.57;;
4290;SDS011;2159;50.906;7.152;2023-09-08T10:04:10;4.93;;;4.30;;
4290;SDS011;2159;50.906;7.152;2023-09-08T10:06:39;4.70;;;4.10;;
4290;SDS011;2159;50.906;7.152;2023-09-08T10:09:07;5.10;;;4.70;;
4290;SDS011;2159;50.906;7.152;2023-09-08T10:11:41;6.30;;;4.57;;
4290;SDS011;2159;50.906;7.152;2023-09-08T10:14:09;6.03;;;4.60;;
4290;SDS011;2159;50.906;7.152;2023-09-08T10:16:38;4.70;;;4.30;;
4290;SDS011;2159;50.906;7.152;2023-09-08T10:19:07;4.60;;;4.07;;
4290;SDS011;2159;50.906;7.152;2023-09-08T10:21:39;7.03;;;4.40;;
4290;SDS011;2159;50.906;7.152;2023-09-08T10:24:09;7.37;;;4.80;;
4290;SDS011;2159;50.906;7.152;2023-09-08T10:26:40;4.50;;;4.10;;
4290;SDS011;2159;50.906;7.152;2023-09-08T10:29:09;5.50;;;4.30;;
4290;SDS011;2159;50.906;7.152;2023-09-08T10:31:37;5.60;;;4.30;;
4290;SDS011;2159;50.906;7.152;2023-09-08T10:34:05;4.87;;;4.47;;
4290;SDS011;2159;50.906;7.152;2023-09-08T10:36:34;5.23;;;4.27;;
4290;SDS011;2159;50.906;7.152;2023-09-08T10:42:01;8.17;;;3.87;;
4290;SDS011;2159;50.906;7.152;2023-09-08T10:44:55;4.83;;;4.43;;
4290;SDS011;2159;50.906;7.152;2023-09-08T10:47:23;4.50;;;4.10;;
4290;SDS011;2159;50.906;7.152;2023-09-08T10:49:50;5.60;;;4.03;;
4290;SDS011;2159;50.906;7.152;2023-09-08T10:52:23;4.80;;;4.30;;
4290;SDS011;2159;50.906;7.152;2023-09-08T10:54:51;6.43;;;4.47;;
4290;SDS011;2159;50.906;7.152;2023-09-08T10:57:21;4.80;;;4.40;;
4290;SDS011;2159;50.906;7.152;2023-09-08T10:59:51;4.90;;;4.50;;
4290;SDS011;2159;50.906;7.152;2023-09-08T11:02:31;9.20;;;4.57;;
4290;SDS011;2159;50.906;7.152;2023-09-08T11:04:59;4.80;;;4.37;;
4290;SDS011;2159;50.906;7.152;2023-09-08T11:07:27;5.60;;;4.67;;
4290;SDS011;2159;50.906;7.152;2023-09-08T11:09:55;4.47;;;4.07;;
4290;SDS011;2159;50.906;7.152;2023-09-08T11:12:23;5.17;;;4.43;;
4290;SDS011;2159;50.906;7.152;2023-09-08T11:14:53;7.03;;;4.00;;
4290;SDS011;2159;50.906;7.152;2023-09-08T11:17:20;4.53;;;4.20;;
4290;SDS011;2159;50.906;7.152;2023-09-08T11:19:48;4.93;;;4.53;;
4290;SDS011;2159;50.906;7.152;2023-09-08T11:22:16;5.10;;;4.33;;
4290;SDS011;2159;50.906;7.152;2023-09-08T11:24:44;8.53;;;4.30;;
4290;SDS011;2159;50.906;7.152;2023-09-08T11:27:12;6.30;;;4.30;;
4290;SDS011;2159;50.906;7.152;2023-09-08T11:29:41;4.80;;;4.40;;
4290;SDS011;2159;50.906;7.152;2023-09-08T11:32:08;5.37;;;3.80;;
4290;SDS011;2159;50.906;7.152;2023-09-08T11:34:36;4.43;;;4.03;;
4290;SDS011;2159;50.906;7.152;2023-09-08T11:37:05;5.53;;;4.57;;
4290;SDS011;2159;50.906;7.152;2023-09-08T11:39:35;8.53;;;4.40;;
4290;SDS011;2159;50.906;7.152;2023-09-08T11:42:02;6.63;;;4.20;;
4290;SDS011;2159;50.906;7.152;2023-09-08T11:44:31;4.57;;;4.27;;
4290;SDS011;2159;50.906;7.152;2023-09-08T11:47:00;4.57;;;4.23;;
4290;SDS011;2159;50.906;7.152;2023-09-08T11:49:33;6.90;;;4.00;;
4290;SDS011;2159;50.906;7.152;2023-09-08T11:52:00;5.10;;;4.30;;
4290;SDS011;2159;50.906;7.152;2023-09-08T11:54:27;4.27;;;3.97;;
4290;SDS011;2159;50.906;7.152;2023-09-08T11:56:57;3.87;;;3.57;;
4290;SDS011;2159;50.906;7.152;2023-09-08T11:59:25;4.30;;;3.90;;
4290;SDS011;2159;50.906;7.152;2023-09-08T12:01:53;4.97;;;4.33;;
4290;SDS011;2159;50.906;7.152;2023-09-08T12:04:22;4.57;;;4.17;;
4290;SDS011;2159;50.906;7.152;2023-09-08T12:06:49;4.30;;;3.90;;
4290;SDS011;2159;50.906;7.152;2023-09-08T12:09:18;4.03;;;3.73;;
4290;SDS011;2159;50.906;7.152;2023-09-08T12:11:47;4.33;;;3.93;;
4290;SDS011;2159;50.906;7.152;2023-09-08T12:14:15;7.73;;;4.53;;
4290;SDS011;2159;50.906;7.152;2023-09-08T12:16:43;6.30;;;4.13;;
4290;SDS011;2159;50.906;7.152;2023-09-08T12:21:59;4.30;;;4.00;;
4290;SDS011;2159;50.906;7.152;2023-09-08T12:24:47;7.70;;;4.00;;
4290;SDS011;2159;50.906;7.152;2023-09-08T12:27:15;6.73;;;4.80;;
4290;SDS011;2159;50.906;7.152;2023-09-08T12:29:51;5.00;;;4.23;;
4290;SDS011;2159;50.906;7.152;2023-09-08T12:32:18;5.00;;;4.03;;
4290;SDS011;2159;50.906;7.152;2023-09-08T12:34:46;4.30;;;3.90;;
4290;SDS011;2159;50.906;7.152;2023-09-08T12:37:15;4.20;;;3.90;;
4290;SDS011;2159;50.906;7.152;2023-09-08T12:39:46;4.47;;;3.90;;
4290;SDS011;2159;50.906;7.152;2023-09-08T12:42:13;3.93;;;3.60;;
4290;SDS011;2159;50.906;7.152;2023-09-08T12:44:41;4.20;;;3.90;;
4290;SDS011;2159;50.906;7.152;2023-09-08T12:47:09;4.47;;;4.03;;
4290;SDS011;2159;50.906;7.152;2023-09-08T12:49:37;4.50;;;4.10;;
4290;SDS011;2159;50.906;7.152;2023-09-08T12:52:05;4.60;;;4.20;;
4290;SDS011;2159;50.906;7.152;2023-09-08T12:54:34;4.27;;;3.87;;
4290;SDS011;2159;50.906;7.152;2023-09-08T12:57:01;5.37;;;3.97;;
4290;SDS011;2159;50.906;7.152;2023-09-08T12:59:32;4.50;;;4.10;;
4290;SDS011;2159;50.906;7.152;2023-09-08T13:01:59;5.70;;;4.20;;
4290;SDS011;2159;50.906;7.152;2023-09-08T13:04:27;5.13;;;4.00;;
4290;SDS011;2159;50.906;7.152;2023-09-08T13:06:54;3.73;;;3.40;;
4290;SDS011;2159;50.906;7.152;2023-09-08T13:09:24;4.93;;;4.00;;
4290;SDS011;2159;50.906;7.152;2023-09-08T13:11:53;4.77;;;4.37;;
4290;SDS011;2159;50.906;7.152;2023-09-08T13:14:21;5.40;;;4.37;;
4290;SDS011;2159;50.906;7.152;2023-09-08T13:16:48;4.90;;;4.03;;
4290;SDS011;2159;50.906;7.152;2023-09-08T13:19:16;4.70;;;4.30;;
4290;SDS011;2159;50.906;7.152;2023-09-08T13:21:43;4.73;;;4.33;;
4290;SDS011;2159;50.906;7.152;2023-09-08T13:24:10;4.50;;;4.10;;
4290;SDS011;2159;50.906;7.152;2023-09-08T13:26:38;4.50;;;4.10;;
4290;SDS011;2159;50.906;7.152;2023-09-08T13:29:08;5.00;;;4.30;;
4290;SDS011;2159;50.906;7.152;2023-09-08T13:31:36;4.50;;;4.10;;
4290;SDS011;2159;50.906;7.152;2023-09-08T13:34:03;7.30;;;4.33;;
4290;SDS011;2159;50.906;7.152;2023-09-08T13:36:31;5.93;;;4.03;;
4290;SDS011;2159;50.906;7.152;2023-09-08T13:38:58;4.90;;;4.30;;
4290;SDS011;2159;50.906;7.152;2023-09-08T13:41:29;7.93;;;4.23;;
4290;SDS011;2159;50.906;7.152;2023-09-08T13:44:11;5.27;;;4.40;;
4290;SDS011;2159;50.906;7.152;2023-09-08T13:46:39;4.77;;;4.03;;
4290;SDS011;2159;50.906;7.152;2023-09-08T13:49:06;4.63;;;4.13;;
4290;SDS011;2159;50.906;7.152;2023-09-08T13:51:35;5.60;;;4.27;;
4290;SDS011;2159;50.906;7.152;2023-09-08T13:54:04;4.57;;;4.17;;
4290;SDS011;2159;50.906;7.152;2023-09-08T13:56:33;4.73;;;4.20;;
4290;SDS011;2159;50.906;7.152;2023-09-08T13:59:01;4.57;;;4.17;;
4290;SDS011;2159;50.906;7.152;2023-09-08T14:01:32;9.03;;;4.57;;
4290;SDS011;2159;50.906;7.152;2023-09-08T14:04:00;4.20;;;3.80;;
4290;SDS011;2159;50.906;7.152;2023-09-08T14:06:35;4.37;;;3.90;;
4290;SDS011;2159;50.906;7.152;2023-09-08T14:09:11;4.20;;;3.83;;
4290;SDS011;2159;50.906;7.152;2023-09-08T14:11:42;4.50;;;3.77;;
4290;SDS011;2159;50.906;7.152;2023-09-08T14:14:26;5.20;;;4.20;;
4290;SDS011;2159;50.906;7.152;2023-09-08T14:16:55;6.60;;;4.20;;
4290;SDS011;2159;50.906;7.152;2023-09-08T14:19:22;4.67;;;3.60;;
4290;SDS011;2159;50.906;7.152;2023-09-08T14:21:50;4.50;;;4.10;;
4290;SDS011;2159;50.906;7.152;2023-09-08T14:24:17;4.83;;;4.30;;
4290;SDS011;2159;50.906;7.152;2023-09-08T14:26:45;4.80;;;4.30;;
4290;SDS011;2159;50.906;7.152;2023-09-08T14:29:12;4.90;;;4.40;;
4290;SDS011;2159;50.906;7.152;2023-09-08T14:31:40;5.63;;;4.37;;
4290;SDS011;2159;50.906;7.152;2023-09-08T14:34:10;4.87;;;4.00;;
4290;SDS011;2159;50.906;7.152;2023-09-08T14:36:38;9.30;;;3.93;;
4290;SDS011;2159;50.906;7.152;2023-09-08T14:39:05;8.67;;;4.00;;
4290;SDS011;2159;50.906;7.152;2023-09-08T14:41:33;4.67;;;4.13;;
4290;SDS011;2159;50.906;7.152;2023-09-08T14:44:01;5.83;;;4.40;;
4290;SDS011;2159;50.906;7.152;2023-09-08T14:46:28;5.43;;;4.37;;
4290;SDS011;2159;50.906;7.152;2023-09-08T14:48:56;4.30;;;4.00;;
4290;SDS011;2159;50.906;7.152;2023-09-08T14:51:25;7.53;;;4.17;;
4290;SDS011;2159;50.906;7.152;2023-09-08T14:53:52;4.70;;;4.20;;
4290;SDS011;2159;50.906;7.152;2023-09-08T14:56:20;4.40;;;4.00;;
4290;SDS011;2159;50.906;7.152;2023-09-08T14:58:47;4.63;;;4.33;;
4290;SDS011;2159;50.906;7.152;2023-09-08T15:01:15;5.20;;;4.30;;
4290;SDS011;2159;50.906;7.152;2023-09-08T15:03:42;4.60;;;4.20;;
4290;SDS011;2159;50.906;7.152;2023-09-08T15:06:10;4.50;;;4.10;;
4290;SDS011;2159;50.906;7.152;2023-09-08T15:08:40;7.33;;;4.20;;
4290;SDS011;2159;50.906;7.152;2023-09-08T15:11:08;5.77;;;4.30;;
4290;SDS011;2159;50.906;7.152;2023-09-08T15:13:36;6.90;;;4.20;;
4290;SDS011;2159;50.906;7.152;2023-09-08T15:16:04;4.20;;;3.90;;
4290;SDS011;2159;50.906;7.152;2023-09-08T15:18:32;6.23;;;4.10;;
4290;SDS011;2159;50.906;7.152;2023-09-08T15:20:59;4.73;;;4.27;;
4290;SDS011;2159;50.906;7.152;2023-09-08T15:23:33;4.67;;;4.27;;
4290;SDS011;2159;50.906;7.152;2023-09-08T15:26:03;4.53;;;4.17;;
4290;SDS011;2159;50.906;7.152;2023-09-08T15:28:31;4.93;;;4.43;;
4290;SDS011;2159;50.906;7.152;2023-09-08T15:30:58;5.40;;;4.70;;